sensor_id;sensor_type;location;lat;lon;timestamp;temperature;humidity
20815;DHT22;10568;48.176;16.316;2024-01-10T00:01:02;-8.70;99.90
20815;DHT22;10568;48.176;16.316;2024-01-10T00:03:29;-8.70;99.90
20815;DHT22;10568;48.176;16.316;2024-01-10T00:05:57;-8.70;99.90
20815;DHT22;10568;48.176;16.316;2024-01-10T00:08:24;-8.70;99.90
20815;DHT22;10568;48.176;16.316;2024-01-10T00:10:52;-8.70;99.90
20815;DHT22;10568;48.176;16.316;2024-01-10T00:13:21;-8.70;99.90
20815;DHT22;10568;48.176;16.316;2024-01-10T00:15:49;-8.70;99.90
20815;DHT22;10568;48.176;16.316;2024-01-10T00:18:16;-8.70;99.90
20815;DHT22;10568;48.176;16.316;2024-01-10T00:20:44;-8.70;99.90
20815;DHT22;10568;48.176;16.316;2024-01-10T00:23:11;-8.70;99.90
20815;DHT22;10568;48.176;16.316;2024-01-10T00:25:38;-8.70;99.90
20815;DHT22;10568;48.176;16.316;2024-01-10T00:28:05;-8.70;99.90
20815;DHT22;10568;48.176;16.316;2024-01-10T00:30:32;-8.70;99.90
20815;DHT22;10568;48.176;16.316;2024-01-10T00:32:59;-8.70;99.90
20815;DHT22;10568;48.176;16.316;2024-01-10T00:35:27;-8.70;99.90
20815;DHT22;10568;48.176;16.316;2024-01-10T00:37:54;-8.70;99.90
20815;DHT22;10568;48.176;16.316;2024-01-10T00:40:22;-8.70;99.90
20815;DHT22;10568;48.176;16.316;2024-01-10T00:42:49;-8.80;99.90
20815;DHT22;10568;48.176;16.316;2024-01-10T00:45:16;-8.80;99.90
20815;DHT22;10568;48.176;16.316;2024-01-10T00:47:44;-8.80;99.90
20815;DHT22;10568;48.176;16.316;2024-01-10T00:50:11;-8.80;99.90
20815;DHT22;10568;48.176;16.316;2024-01-10T00:52:38;-8.80;99.90
20815;DHT22;10568;48.176;16.316;2024-01-10T00:55:08;-8.80;99.90
20815;DHT22;10568;48.176;16.316;2024-01-10T00:57:37;-8.80;99.90
20815;DHT22;10568;48.176;16.316;2024-01-10T01:00:10;-8.90;99.90
20815;DHT22;10568;48.176;16.316;2024-01-10T01:02:38;-8.80;99.90
20815;DHT22;10568;48.176;16.316;2024-01-10T01:05:09;-8.90;99.90
20815;DHT22;10568;48.176;16.316;2024-01-10T01:07:38;-8.90;99.90
20815;DHT22;10568;48.176;16.316;2024-01-10T01:10:06;-8.90;99.90
20815;DHT22;10568;48.176;16.316;2024-01-10T01:12:36;-8.90;99.90
20815;DHT22;10568;48.176;16.316;2024-01-10T01:15:05;-8.80;99.90
20815;DHT22;10568;48.176;16.316;2024-01-10T01:17:33;-8.70;99.90
20815;DHT22;10568;48.176;16.316;2024-01-10T01:20:02;-8.80;99.90
20815;DHT22;10568;48.176;16.316;2024-01-10T01:22:32;-8.70;99.90
20815;DHT22;10568;48.176;16.316;2024-01-10T01:25:00;-8.70;99.90
20815;DHT22;10568;48.176;16.316;2024-01-10T01:27:27;-8.70;99.90
20815;DHT22;10568;48.176;16.316;2024-01-10T01:29:54;-8.70;99.90
20815;DHT22;10568;48.176;16.316;2024-01-10T01:32:21;-8.70;99.90
20815;DHT22;10568;48.176;16.316;2024-01-10T01:34:48;-8.70;99.90
20815;DHT22;10568;48.176;16.316;2024-01-10T01:37:17;-8.70;99.90
20815;DHT22;10568;48.176;16.316;2024-01-10T01:39:46;-8.70;99.90
20815;DHT22;10568;48.176;16.316;2024-01-10T01:42:14;-8.80;99.90
20815;DHT22;10568;48.176;16.316;2024-01-10T01:44:43;-8.80;99.90
20815;DHT22;10568;48.176;16.316;2024-01-10T01:47:11;-8.80;99.90
20815;DHT22;10568;48.176;16.316;2024-01-10T01:49:38;-8.80;99.90
20815;DHT22;10568;48.176;16.316;2024-01-10T01:52:07;-8.90;99.90
20815;DHT22;10568;48.176;16.316;2024-01-10T01:54:35;-8.90;99.90
20815;DHT22;10568;48.176;16.316;2024-01-10T01:57:05;-8.90;99.90
20815;DHT22;10568;48.176;16.316;2024-01-10T01:59:33;-8.90;99.90
20815;DHT22;10568;48.176;16.316;2024-01-10T02:02:01;-8.90;99.90
20815;DHT22;10568;48.176;16.316;2024-01-10T02:04:30;-8.90;99.90
20815;DHT22;10568;48.176;16.316;2024-01-10T02:06:57;-8.90;99.90
20815;DHT22;10568;48.176;16.316;2024-01-10T02:09:25;-8.90;99.90
20815;DHT22;10568;48.176;16.316;2024-01-10T02:11:52;-8.90;99.90
20815;DHT22;10568;48.176;16.316;2024-01-10T02:14:20;-8.90;99.90
20815;DHT22;10568;48.176;16.316;2024-01-10T02:23:07;-9.00;99.90
20815;DHT22;10568;48.176;16.316;2024-01-10T02:25:34;-9.00;99.90
20815;DHT22;10568;48.176;16.316;2024-01-10T02:28:02;-9.00;99.90
20815;DHT22;10568;48.176;16.316;2024-01-10T02:30:29;-9.00;99.90
20815;DHT22;10568;48.176;16.316;2024-01-10T02:33:35;-9.00;99.90
20815;DHT22;10568;48.176;16.316;2024-01-10T02:36:40;-9.00;99.90
20815;DHT22;10568;48.176;16.316;2024-01-10T02:39:26;-9.00;99.90
20815;DHT22;10568;48.176;16.316;2024-01-10T02:41:53;-9.00;99.90
20815;DHT22;10568;48.176;16.316;2024-01-10T02:44:20;-9.00;99.90
20815;DHT22;10568;48.176;16.316;2024-01-10T02:46:50;-9.00;99.90
20815;DHT22;10568;48.176;16.316;2024-01-10T02:49:35;-9.00;99.90
20815;DHT22;10568;48.176;16.316;2024-01-10T02:52:02;-9.00;99.90
20815;DHT22;10568;48.176;16.316;2024-01-10T02:54:29;-9.10;99.90
20815;DHT22;10568;48.176;16.316;2024-01-10T02:56:56;-9.10;99.90
20815;DHT22;10568;48.176;16.316;2024-01-10T02:59:24;-9.10;99.90
20815;DHT22;10568;48.176;16.316;2024-01-10T03:01:51;-9.10;99.90
20815;DHT22;10568;48.176;16.316;2024-01-10T03:04:18;-9.10;99.90
20815;DHT22;10568;48.176;16.316;2024-01-10T03:06:45;-9.10;99.90
20815;DHT22;10568;48.176;16.316;2024-01-10T03:09:12;-9.10;99.90
20815;DHT22;10568;48.176;16.316;2024-01-10T03:11:39;-9.10;99.90
20815;DHT22;10568;48.176;16.316;2024-01-10T03:14:10;-8.50;99.90
20815;DHT22;10568;48.176;16.316;2024-01-10T03:16:38;-9.10;99.90
20815;DHT22;10568;48.176;16.316;2024-01-10T03:19:05;-9.10;99.90
20815;DHT22;10568;48.176;16.316;2024-01-10T03:21:32;-9.10;99.90
20815;DHT22;10568;48.176;16.316;2024-01-10T03:24:00;-9.10;99.90
20815;DHT22;10568;48.176;16.316;2024-01-10T03:26:28;-9.20;99.90
20815;DHT22;10568;48.176;16.316;2024-01-10T03:28:57;-9.20;99.90
20815;DHT22;10568;48.176;16.316;2024-01-10T03:31:25;-9.20;99.90
20815;DHT22;10568;48.176;16.316;2024-01-10T03:33:52;-9.20;99.90
20815;DHT22;10568;48.176;16.316;2024-01-10T03:36:19;-9.20;99.90
20815;DHT22;10568;48.176;16.316;2024-01-10T03:38:46;-9.20;99.90
20815;DHT22;10568;48.176;16.316;2024-01-10T03:41:15;-9.20;99.90
20815;DHT22;10568;48.176;16.316;2024-01-10T03:43:43;-9.30;99.90
20815;DHT22;10568;48.176;16.316;2024-01-10T03:46:12;-9.30;99.90
20815;DHT22;10568;48.176;16.316;2024-01-10T03:48:40;-9.30;99.90
20815;DHT22;10568;48.176;16.316;2024-01-10T03:51:16;-9.30;99.90
20815;DHT22;10568;48.176;16.316;2024-01-10T03:53:44;-9.30;99.90
20815;DHT22;10568;48.176;16.316;2024-01-10T03:56:12;-9.30;99.90
20815;DHT22;10568;48.176;16.316;2024-01-10T03:58:40;-9.30;99.90
20815;DHT22;10568;48.176;16.316;2024-01-10T04:01:08;-9.30;99.90
20815;DHT22;10568;48.176;16.316;2024-01-10T04:03:36;-9.30;99.90
20815;DHT22;10568;48.176;16.316;2024-01-10T04:06:03;-9.30;99.90
20815;DHT22;10568;48.176;16.316;2024-01-10T04:08:31;-9.30;99.90
20815;DHT22;10568;48.176;16.316;2024-01-10T04:10:58;-9.40;99.90
20815;DHT22;10568;48.176;16.316;2024-01-10T04:13:26;-9.30;99.90
20815;DHT22;10568;48.176;16.316;2024-01-10T04:15:53;-9.30;99.90
20815;DHT22;10568;48.176;16.316;2024-01-10T04:18:20;-9.30;99.90
20815;DHT22;10568;48.176;16.316;2024-01-10T04:20:49;-9.40;99.90
20815;DHT22;10568;48.176;16.316;2024-01-10T04:23:16;-9.30;99.90
20815;DHT22;10568;48.176;16.316;2024-01-10T04:25:44;-9.30;99.90
20815;DHT22;10568;48.176;16.316;2024-01-10T04:28:11;-9.30;99.90
20815;DHT22;10568;48.176;16.316;2024-01-10T04:30:38;-9.30;99.90
20815;DHT22;10568;48.176;16.316;2024-01-10T04:33:06;-9.30;99.90
20815;DHT22;10568;48.176;16.316;2024-01-10T04:35:33;-9.30;99.90
20815;DHT22;10568;48.176;16.316;2024-01-10T04:38:00;-9.30;99.90
20815;DHT22;10568;48.176;16.316;2024-01-10T04:40:28;-9.30;99.90
20815;DHT22;10568;48.176;16.316;2024-01-10T04:42:55;-9.30;99.90
20815;DHT22;10568;48.176;16.316;2024-01-10T04:45:22;-9.30;99.90
20815;DHT22;10568;48.176;16.316;2024-01-10T04:47:49;-9.30;99.90
20815;DHT22;10568;48.176;16.316;2024-01-10T04:50:16;-9.30;99.90
20815;DHT22;10568;48.176;16.316;2024-01-10T04:52:43;-9.30;99.90
20815;DHT22;10568;48.176;16.316;2024-01-10T04:55:10;-9.30;99.90
20815;DHT22;10568;48.176;16.316;2024-01-10T04:57:38;-9.30;99.90
20815;DHT22;10568;48.176;16.316;2024-01-10T05:00:05;-9.30;99.90
20815;DHT22;10568;48.176;16.316;2024-01-10T05:02:33;-9.30;99.90
20815;DHT22;10568;48.176;16.316;2024-01-10T05:05:26;-9.30;99.90
20815;DHT22;10568;48.176;16.316;2024-01-10T05:07:53;-9.30;99.90
20815;DHT22;10568;48.176;16.316;2024-01-10T05:10:21;-9.40;99.90
20815;DHT22;10568;48.176;16.316;2024-01-10T05:12:48;-9.40;99.90
20815;DHT22;10568;48.176;16.316;2024-01-10T05:15:15;-9.40;99.90
20815;DHT22;10568;48.176;16.316;2024-01-10T05:17:42;-9.50;99.90
20815;DHT22;10568;48.176;16.316;2024-01-10T05:20:10;-9.50;99.90
20815;DHT22;10568;48.176;16.316;2024-01-10T05:22:37;-9.50;99.90
20815;DHT22;10568;48.176;16.316;2024-01-10T05:25:04;-9.50;99.90
20815;DHT22;10568;48.176;16.316;2024-01-10T05:27:32;-9.60;99.90
20815;DHT22;10568;48.176;16.316;2024-01-10T05:29:59;-9.60;99.90
20815;DHT22;10568;48.176;16.316;2024-01-10T05:32:27;-9.60;99.90
20815;DHT22;10568;48.176;16.316;2024-01-10T05:34:54;-9.60;99.90
20815;DHT22;10568;48.176;16.316;2024-01-10T05:37:22;-9.60;99.90
20815;DHT22;10568;48.176;16.316;2024-01-10T05:39:49;-9.60;99.90
20815;DHT22;10568;48.176;16.316;2024-01-10T05:42:16;-9.60;99.90
20815;DHT22;10568;48.176;16.316;2024-01-10T05:44:43;-9.60;99.90
20815;DHT22;10568;48.176;16.316;2024-01-10T05:47:11;-9.60;99.90
20815;DHT22;10568;48.176;16.316;2024-01-10T05:49:38;-9.70;99.90
20815;DHT22;10568;48.176;16.316;2024-01-10T05:52:06;-9.70;99.90
20815;DHT22;10568;48.176;16.316;2024-01-10T05:54:33;-9.70;99.90
20815;DHT22;10568;48.176;16.316;2024-01-10T05:57:01;-9.70;99.90
20815;DHT22;10568;48.176;16.316;2024-01-10T05:59:29;-9.70;99.90
20815;DHT22;10568;48.176;16.316;2024-01-10T06:01:57;-9.70;99.90
20815;DHT22;10568;48.176;16.316;2024-01-10T06:04:29;-9.70;99.90
20815;DHT22;10568;48.176;16.316;2024-01-10T06:06:59;-9.70;99.90
20815;DHT22;10568;48.176;16.316;2024-01-10T06:09:26;-9.70;99.90
20815;DHT22;10568;48.176;16.316;2024-01-10T06:11:53;-9.70;99.90
20815;DHT22;10568;48.176;16.316;2024-01-10T06:14:20;-9.70;99.90
20815;DHT22;10568;48.176;16.316;2024-01-10T06:16:47;-9.70;99.90
20815;DHT22;10568;48.176;16.316;2024-01-10T06:19:14;-9.70;99.90
20815;DHT22;10568;48.176;16.316;2024-01-10T06:21:42;-10.40;99.90
20815;DHT22;10568;48.176;16.316;2024-01-10T06:24:09;-9.70;99.90
20815;DHT22;10568;48.176;16.316;2024-01-10T06:26:36;-9.70;99.90
20815;DHT22;10568;48.176;16.316;2024-01-10T06:29:03;-9.70;99.90
20815;DHT22;10568;48.176;16.316;2024-01-10T06:31:30;-9.70;99.90
20815;DHT22;10568;48.176;16.316;2024-01-10T06:33:57;-9.70;99.90
20815;DHT22;10568;48.176;16.316;2024-01-10T06:36:24;-9.70;99.90
20815;DHT22;10568;48.176;16.316;2024-01-10T06:38:52;-9.60;99.90
20815;DHT22;10568;48.176;16.316;2024-01-10T06:41:21;-9.60;99.90
20815;DHT22;10568;48.176;16.316;2024-01-10T06:43:51;-9.60;99.90
20815;DHT22;10568;48.176;16.316;2024-01-10T06:46:19;-9.50;99.90
20815;DHT22;10568;48.176;16.316;2024-01-10T06:48:47;-9.50;99.90
20815;DHT22;10568;48.176;16.316;2024-01-10T06:51:15;-9.50;99.90
20815;DHT22;10568;48.176;16.316;2024-01-10T06:53:43;-9.40;99.90
20815;DHT22;10568;48.176;16.316;2024-01-10T06:56:10;-9.40;99.90
20815;DHT22;10568;48.176;16.316;2024-01-10T06:58:38;-9.30;99.90
20815;DHT22;10568;48.176;16.316;2024-01-10T07:01:11;-9.30;99.90
20815;DHT22;10568;48.176;16.316;2024-01-10T07:03:41;-9.20;99.90
20815;DHT22;10568;48.176;16.316;2024-01-10T07:06:08;-9.20;99.90
20815;DHT22;10568;48.176;16.316;2024-01-10T07:08:35;-9.20;99.90
20815;DHT22;10568;48.176;16.316;2024-01-10T07:11:02;-9.10;99.90
20815;DHT22;10568;48.176;16.316;2024-01-10T07:13:29;-9.10;99.90
20815;DHT22;10568;48.176;16.316;2024-01-10T07:15:58;-9.00;99.90
20815;DHT22;10568;48.176;16.316;2024-01-10T07:18:29;-9.00;99.90
20815;DHT22;10568;48.176;16.316;2024-01-10T07:20:57;-8.90;99.90
20815;DHT22;10568;48.176;16.316;2024-01-10T07:23:24;-8.90;99.90
20815;DHT22;10568;48.176;16.316;2024-01-10T07:25:52;-8.90;99.90
20815;DHT22;10568;48.176;16.316;2024-01-10T07:28:19;-8.80;99.90
20815;DHT22;10568;48.176;16.316;2024-01-10T07:30:47;-8.80;99.90
20815;DHT22;10568;48.176;16.316;2024-01-10T07:33:14;-8.70;99.90
20815;DHT22;10568;48.176;16.316;2024-01-10T07:35:42;-8.70;99.90
20815;DHT22;10568;48.176;16.316;2024-01-10T07:38:09;-8.70;99.90
20815;DHT22;10568;48.176;16.316;2024-01-10T07:40:36;-8.60;99.90
20815;DHT22;10568;48.176;16.316;2024-01-10T07:43:04;-8.50;99.90
20815;DHT22;10568;48.176;16.316;2024-01-10T07:45:31;-8.50;99.90
20815;DHT22;10568;48.176;16.316;2024-01-10T07:47:59;-8.40;99.90
20815;DHT22;10568;48.176;16.316;2024-01-10T07:50:27;-8.30;99.90
20815;DHT22;10568;48.176;16.316;2024-01-10T07:52:55;-8.30;99.90
20815;DHT22;10568;48.176;16.316;2024-01-10T07:55:23;-8.30;99.90
20815;DHT22;10568;48.176;16.316;2024-01-10T07:57:50;-8.20;99.90
20815;DHT22;10568;48.176;16.316;2024-01-10T08:00:18;-8.20;99.90
20815;DHT22;10568;48.176;16.316;2024-01-10T08:02:47;-8.10;99.90
20815;DHT22;10568;48.176;16.316;2024-01-10T08:05:16;-8.00;99.90
20815;DHT22;10568;48.176;16.316;2024-01-10T08:07:44;-7.90;99.90
20815;DHT22;10568;48.176;16.316;2024-01-10T08:10:11;-7.90;99.90
20815;DHT22;10568;48.176;16.316;2024-01-10T08:12:38;-7.80;99.90
20815;DHT22;10568;48.176;16.316;2024-01-10T08:15:06;-7.80;99.90
20815;DHT22;10568;48.176;16.316;2024-01-10T08:17:33;-7.70;99.90
20815;DHT22;10568;48.176;16.316;2024-01-10T08:20:01;-7.70;99.90
20815;DHT22;10568;48.176;16.316;2024-01-10T08:22:31;-7.60;99.90
20815;DHT22;10568;48.176;16.316;2024-01-10T08:24:58;-7.50;99.90
20815;DHT22;10568;48.176;16.316;2024-01-10T08:27:25;-7.50;99.90
20815;DHT22;10568;48.176;16.316;2024-01-10T08:29:52;-7.40;99.90
20815;DHT22;10568;48.176;16.316;2024-01-10T08:32:19;-7.40;99.90
20815;DHT22;10568;48.176;16.316;2024-01-10T08:34:49;-7.30;99.90
20815;DHT22;10568;48.176;16.316;2024-01-10T08:37:16;-7.30;99.90
20815;DHT22;10568;48.176;16.316;2024-01-10T08:39:46;-7.20;99.90
20815;DHT22;10568;48.176;16.316;2024-01-10T08:42:13;-7.10;99.90
20815;DHT22;10568;48.176;16.316;2024-01-10T08:44:40;-7.00;99.90
20815;DHT22;10568;48.176;16.316;2024-01-10T08:47:09;-6.90;99.90
20815;DHT22;10568;48.176;16.316;2024-01-10T08:49:36;-6.90;99.90
20815;DHT22;10568;48.176;16.316;2024-01-10T08:52:03;-6.80;99.90
20815;DHT22;10568;48.176;16.316;2024-01-10T08:54:31;-6.70;99.90
20815;DHT22;10568;48.176;16.316;2024-01-10T08:56:58;-6.70;99.90
20815;DHT22;10568;48.176;16.316;2024-01-10T08:59:26;-6.60;99.90
20815;DHT22;10568;48.176;16.316;2024-01-10T09:01:55;-6.60;99.90
20815;DHT22;10568;48.176;16.316;2024-01-10T09:04:22;-6.50;99.90
20815;DHT22;10568;48.176;16.316;2024-01-10T09:06:49;-6.40;99.90
20815;DHT22;10568;48.176;16.316;2024-01-10T09:09:16;-6.30;99.90
20815;DHT22;10568;48.176;16.316;2024-01-10T09:11:48;-6.30;99.90
20815;DHT22;10568;48.176;16.316;2024-01-10T09:14:15;-6.20;99.90
20815;DHT22;10568;48.176;16.316;2024-01-10T09:16:42;-6.10;99.90
20815;DHT22;10568;48.176;16.316;2024-01-10T09:19:09;-6.00;99.90
20815;DHT22;10568;48.176;16.316;2024-01-10T09:21:38;-5.90;99.90
20815;DHT22;10568;48.176;16.316;2024-01-10T09:24:05;-5.80;99.90
20815;DHT22;10568;48.176;16.316;2024-01-10T09:26:52;-5.70;99.90
20815;DHT22;10568;48.176;16.316;2024-01-10T09:29:20;-5.50;99.90
20815;DHT22;10568;48.176;16.316;2024-01-10T09:31:48;-5.50;99.90
20815;DHT22;10568;48.176;16.316;2024-01-10T09:34:17;-5.30;99.90
20815;DHT22;10568;48.176;16.316;2024-01-10T09:36:45;-5.20;99.90
20815;DHT22;10568;48.176;16.316;2024-01-10T09:39:12;-5.00;99.90
20815;DHT22;10568;48.176;16.316;2024-01-10T09:41:47;-4.90;99.90
20815;DHT22;10568;48.176;16.316;2024-01-10T09:44:44;-4.70;99.90
20815;DHT22;10568;48.176;16.316;2024-01-10T09:47:13;-4.40;99.90
20815;DHT22;10568;48.176;16.316;2024-01-10T09:49:41;-4.10;99.90
20815;DHT22;10568;48.176;16.316;2024-01-10T09:52:24;-4.00;99.90
20815;DHT22;10568;48.176;16.316;2024-01-10T09:54:56;-3.80;99.90
20815;DHT22;10568;48.176;16.316;2024-01-10T09:57:26;-3.60;99.90
20815;DHT22;10568;48.176;16.316;2024-01-10T09:59:54;-3.40;99.90
20815;DHT22;10568;48.176;16.316;2024-01-10T10:02:23;-3.30;99.90
20815;DHT22;10568;48.176;16.316;2024-01-10T10:07:24;-3.10;99.90
20815;DHT22;10568;48.176;16.316;2024-01-10T10:09:51;-3.10;99.90
20815;DHT22;10568;48.176;16.316;2024-01-10T10:12:20;-3.00;99.90
20815;DHT22;10568;48.176;16.316;2024-01-10T10:14:47;-2.90;99.90
20815;DHT22;10568;48.176;16.316;2024-01-10T10:17:16;-2.90;99.90
20815;DHT22;10568;48.176;16.316;2024-01-10T10:19:44;-2.90;99.90
20815;DHT22;10568;48.176;16.316;2024-01-10T10:22:11;-3.00;99.90
20815;DHT22;10568;48.176;16.316;2024-01-10T10:24:39;-3.00;99.90
20815;DHT22;10568;48.176;16.316;2024-01-10T10:27:11;-3.10;99.90
20815;DHT22;10568;48.176;16.316;2024-01-10T10:29:39;-3.20;99.90
20815;DHT22;10568;48.176;16.316;2024-01-10T10:32:06;-3.20;99.90
20815;DHT22;10568;48.176;16.316;2024-01-10T10:34:35;-3.10;99.90
20815;DHT22;10568;48.176;16.316;2024-01-10T10:37:03;-3.10;99.90
20815;DHT22;10568;48.176;16.316;2024-01-10T10:39:30;-3.10;99.90
20815;DHT22;10568;48.176;16.316;2024-01-10T10:41:58;-3.10;99.90
20815;DHT22;10568;48.176;16.316;2024-01-10T10:44:27;-3.10;99.90
20815;DHT22;10568;48.176;16.316;2024-01-10T10:46:59;-3.00;99.90
20815;DHT22;10568;48.176;16.316;2024-01-10T10:49:44;-2.90;99.90
20815;DHT22;10568;48.176;16.316;2024-01-10T10:52:15;-2.80;99.90
20815;DHT22;10568;48.176;16.316;2024-01-10T10:54:44;-2.80;99.90
20815;DHT22;10568;48.176;16.316;2024-01-10T10:57:12;-2.70;99.90
20815;DHT22;10568;48.176;16.316;2024-01-10T10:59:41;-2.60;99.90
20815;DHT22;10568;48.176;16.316;2024-01-10T11:02:10;-2.60;99.90
20815;DHT22;10568;48.176;16.316;2024-01-10T11:04:40;-2.40;99.90
20815;DHT22;10568;48.176;16.316;2024-01-10T11:07:08;-2.30;99.90
20815;DHT22;10568;48.176;16.316;2024-01-10T11:09:37;-2.20;99.90
20815;DHT22;10568;48.176;16.316;2024-01-10T11:23:49;-1.80;99.90
20815;DHT22;10568;48.176;16.316;2024-01-10T11:26:19;-1.70;99.90
20815;DHT22;10568;48.176;16.316;2024-01-10T11:28:47;-1.60;99.90
20815;DHT22;10568;48.176;16.316;2024-01-10T11:31:16;-1.50;99.90
20815;DHT22;10568;48.176;16.316;2024-01-10T11:33:53;-1.40;99.90
20815;DHT22;10568;48.176;16.316;2024-01-10T11:36:22;-1.30;99.90
20815;DHT22;10568;48.176;16.316;2024-01-10T11:39:03;-1.30;99.90
20815;DHT22;10568;48.176;16.316;2024-01-10T11:41:34;-1.20;99.90
20815;DHT22;10568;48.176;16.316;2024-01-10T11:46:50;-1.00;99.90
20815;DHT22;10568;48.176;16.316;2024-01-10T11:49:18;-0.90;99.90
20815;DHT22;10568;48.176;16.316;2024-01-10T11:51:50;-0.80;99.90
20815;DHT22;10568;48.176;16.316;2024-01-10T11:54:37;-0.70;99.90
20815;DHT22;10568;48.176;16.316;2024-01-10T11:57:11;-0.70;99.90
20815;DHT22;10568;48.176;16.316;2024-01-10T11:59:41;-0.60;99.90
20815;DHT22;10568;48.176;16.316;2024-01-10T12:02:10;-0.50;99.90
20815;DHT22;10568;48.176;16.316;2024-01-10T12:04:38;-0.50;99.90
20815;DHT22;10568;48.176;16.316;2024-01-10T12:07:15;-0.40;99.90
20815;DHT22;10568;48.176;16.316;2024-01-10T12:09:42;-0.30;99.90
20815;DHT22;10568;48.176;16.316;2024-01-10T12:12:11;-0.30;99.90
20815;DHT22;10568;48.176;16.316;2024-01-10T12:14:39;-0.20;99.90
20815;DHT22;10568;48.176;16.316;2024-01-10T12:17:06;-0.20;99.90
20815;DHT22;10568;48.176;16.316;2024-01-10T12:19:37;-0.20;99.90
20815;DHT22;10568;48.176;16.316;2024-01-10T12:22:05;-0.20;99.90
20815;DHT22;10568;48.176;16.316;2024-01-10T12:24:47;-0.10;99.90
20815;DHT22;10568;48.176;16.316;2024-01-10T12:27:17;-0.10;99.90
20815;DHT22;10568;48.176;16.316;2024-01-10T12:29:48;0.00;99.90
20815;DHT22;10568;48.176;16.316;2024-01-10T12:32:18;0.10;99.90
20815;DHT22;10568;48.176;16.316;2024-01-10T12:34:46;0.10;99.90
20815;DHT22;10568;48.176;16.316;2024-01-10T12:37:13;0.10;99.90
20815;DHT22;10568;48.176;16.316;2024-01-10T12:39:40;0.10;99.90
20815;DHT22;10568;48.176;16.316;2024-01-10T12:42:08;0.10;99.90
20815;DHT22;10568;48.176;16.316;2024-01-10T12:44:36;0.20;99.90
20815;DHT22;10568;48.176;16.316;2024-01-10T12:47:03;0.10;99.90
20815;DHT22;10568;48.176;16.316;2024-01-10T12:49:31;0.10;99.90
20815;DHT22;10568;48.176;16.316;2024-01-10T12:51:58;0.10;99.90
20815;DHT22;10568;48.176;16.316;2024-01-10T12:54:25;0.10;99.90
20815;DHT22;10568;48.176;16.316;2024-01-10T12:56:52;0.10;99.90
20815;DHT22;10568;48.176;16.316;2024-01-10T12:59:20;0.10;99.90
20815;DHT22;10568;48.176;16.316;2024-01-10T13:01:47;0.10;99.90
20815;DHT22;10568;48.176;16.316;2024-01-10T13:04:14;0.10;99.90
20815;DHT22;10568;48.176;16.316;2024-01-10T13:06:41;0.00;99.90
20815;DHT22;10568;48.176;16.316;2024-01-10T13:09:08;0.00;99.90
20815;DHT22;10568;48.176;16.316;2024-01-10T13:11:36;0.00;99.90
20815;DHT22;10568;48.176;16.316;2024-01-10T13:14:03;0.00;99.90
20815;DHT22;10568;48.176;16.316;2024-01-10T13:16:36;-0.10;99.90
20815;DHT22;10568;48.176;16.316;2024-01-10T13:19:19;0.00;99.90
20815;DHT22;10568;48.176;16.316;2024-01-10T13:21:46;-0.10;99.90
20815;DHT22;10568;48.176;16.316;2024-01-10T13:24:13;-0.10;99.90
20815;DHT22;10568;48.176;16.316;2024-01-10T13:26:40;-0.10;99.90
20815;DHT22;10568;48.176;16.316;2024-01-10T13:29:07;-0.10;99.90
20815;DHT22;10568;48.176;16.316;2024-01-10T13:31:34;-0.10;99.90
20815;DHT22;10568;48.176;16.316;2024-01-10T13:34:03;0.00;99.90
20815;DHT22;10568;48.176;16.316;2024-01-10T13:36:31;0.00;99.90
20815;DHT22;10568;48.176;16.316;2024-01-10T13:38:58;0.40;99.90
20815;DHT22;10568;48.176;16.316;2024-01-10T13:41:25;-0.10;99.90
20815;DHT22;10568;48.176;16.316;2024-01-10T13:43:53;-0.10;99.90
20815;DHT22;10568;48.176;16.316;2024-01-10T13:46:20;-0.10;99.90
20815;DHT22;10568;48.176;16.316;2024-01-10T13:48:47;-0.20;99.90
20815;DHT22;10568;48.176;16.316;2024-01-10T13:51:14;-0.20;99.90
20815;DHT22;10568;48.176;16.316;2024-01-10T13:53:41;-0.20;99.90
20815;DHT22;10568;48.176;16.316;2024-01-10T13:56:08;-0.20;99.90
20815;DHT22;10568;48.176;16.316;2024-01-10T13:58:36;-0.20;99.90
20815;DHT22;10568;48.176;16.316;2024-01-10T14:01:03;-0.20;99.90
20815;DHT22;10568;48.176;16.316;2024-01-10T14:03:30;-0.20;99.90
20815;DHT22;10568;48.176;16.316;2024-01-10T14:05:59;-0.20;99.90
20815;DHT22;10568;48.176;16.316;2024-01-10T14:08:27;-0.20;99.90
20815;DHT22;10568;48.176;16.316;2024-01-10T14:10:55;-0.20;99.90
20815;DHT22;10568;48.176;16.316;2024-01-10T14:13:22;-0.30;99.90
20815;DHT22;10568;48.176;16.316;2024-01-10T14:15:52;-0.30;99.90
20815;DHT22;10568;48.176;16.316;2024-01-10T14:18:19;-0.30;99.90
20815;DHT22;10568;48.176;16.316;2024-01-10T14:20:48;-0.40;99.90
20815;DHT22;10568;48.176;16.316;2024-01-10T14:23:15;-0.40;99.90
20815;DHT22;10568;48.176;16.316;2024-01-10T14:25:45;-0.50;99.90
20815;DHT22;10568;48.176;16.316;2024-01-10T14:28:12;-0.50;99.90
20815;DHT22;10568;48.176;16.316;2024-01-10T14:30:40;-0.50;99.90
20815;DHT22;10568;48.176;16.316;2024-01-10T14:33:07;-0.50;99.90
20815;DHT22;10568;48.176;16.316;2024-01-10T14:35:35;-0.60;99.90
20815;DHT22;10568;48.176;16.316;2024-01-10T14:38:02;-0.60;99.90
20815;DHT22;10568;48.176;16.316;2024-01-10T14:40:30;-0.70;99.90
20815;DHT22;10568;48.176;16.316;2024-01-10T14:42:57;-0.70;99.90
20815;DHT22;10568;48.176;16.316;2024-01-10T14:45:24;-0.70;99.90
20815;DHT22;10568;48.176;16.316;2024-01-10T14:47:52;-0.80;99.90
20815;DHT22;10568;48.176;16.316;2024-01-10T14:50:19;-0.80;99.90
20815;DHT22;10568;48.176;16.316;2024-01-10T14:52:47;-0.90;99.90
20815;DHT22;10568;48.176;16.316;2024-01-10T14:55:14;-1.00;99.90
20815;DHT22;10568;48.176;16.316;2024-01-10T14:57:41;-1.00;99.90
20815;DHT22;10568;48.176;16.316;2024-01-10T15:00:08;-1.10;99.90
20815;DHT22;10568;48.176;16.316;2024-01-10T15:02:37;-1.10;99.90
20815;DHT22;10568;48.176;16.316;2024-01-10T15:05:06;-1.20;99.90
20815;DHT22;10568;48.176;16.316;2024-01-10T15:07:33;-1.20;99.90
20815;DHT22;10568;48.176;16.316;2024-01-10T15:10:00;-1.20;99.90
20815;DHT22;10568;48.176;16.316;2024-01-10T15:12:30;-1.20;99.90
20815;DHT22;10568;48.176;16.316;2024-01-10T15:14:57;-1.20;99.90
20815;DHT22;10568;48.176;16.316;2024-01-10T15:17:31;-1.40;99.90
20815;DHT22;10568;48.176;16.316;2024-01-10T15:19:58;-1.40;99.90
20815;DHT22;10568;48.176;16.316;2024-01-10T15:22:26;-1.30;99.90
20815;DHT22;10568;48.176;16.316;2024-01-10T15:24:54;-1.40;99.90
20815;DHT22;10568;48.176;16.316;2024-01-10T15:27:21;-1.40;99.90
20815;DHT22;10568;48.176;16.316;2024-01-10T15:29:48;-1.50;99.90
20815;DHT22;10568;48.176;16.316;2024-01-10T15:32:25;-1.50;99.90
20815;DHT22;10568;48.176;16.316;2024-01-10T15:34:52;-1.60;99.90
20815;DHT22;10568;48.176;16.316;2024-01-10T15:37:20;-1.60;99.90
20815;DHT22;10568;48.176;16.316;2024-01-10T15:39:47;-1.70;99.90
20815;DHT22;10568;48.176;16.316;2024-01-10T15:42:14;-1.70;99.90
20815;DHT22;10568;48.176;16.316;2024-01-10T15:44:42;-1.70;99.90
20815;DHT22;10568;48.176;16.316;2024-01-10T15:47:09;-1.80;99.90
20815;DHT22;10568;48.176;16.316;2024-01-10T15:49:37;-1.80;99.90